createdAt,value
2022-09-25T00:01:19.344Z,60.91
2022-09-25T00:03:47.427Z,60.96
2022-09-25T00:06:17.681Z,60.90
2022-09-25T00:08:46.585Z,60.86
2022-09-25T00:11:16.363Z,60.73
2022-09-25T00:13:45.833Z,60.89
2022-09-25T00:16:16.203Z,60.72
2022-09-25T00:19:03.146Z,60.73
2022-09-25T00:21:32.036Z,60.97
2022-09-25T00:24:01.056Z,60.78
2022-09-25T00:26:30.609Z,60.70
2022-09-25T00:29:01.082Z,60.95
2022-09-25T00:31:30.507Z,60.92
2022-09-25T00:34:02.460Z,60.95
2022-09-25T00:36:30.855Z,61.19
2022-09-25T00:38:58.751Z,60.71
2022-09-25T00:41:30.104Z,61.00
2022-09-25T00:43:59.984Z,60.79
2022-09-25T00:46:31.566Z,60.76
2022-09-25T00:49:05.291Z,60.66
2022-09-25T00:51:38.884Z,60.86
2022-09-25T00:54:07.556Z,60.48
2022-09-25T00:56:41.098Z,60.79
2022-09-25T00:59:13.070Z,60.78
2022-09-25T01:01:40.991Z,60.91
2022-09-25T01:04:13.394Z,61.25
2022-09-25T01:06:41.934Z,60.99
2022-09-25T01:09:09.912Z,61.02
2022-09-25T01:11:37.749Z,60.48
2022-09-25T01:14:08.585Z,60.35
2022-09-25T01:16:42.433Z,60.80
2022-09-25T01:19:27.277Z,60.80
2022-09-25T01:22:06.174Z,60.98
2022-09-25T01:25:03.058Z,60.57
2022-09-25T01:28:07.881Z,60.61
2022-09-25T01:30:41.638Z,60.75
2022-09-25T01:33:16.114Z,60.48
2022-09-25T01:35:49.806Z,60.68
2022-09-25T01:38:31.221Z,60.78
2022-09-25T01:41:03.616Z,60.74
2022-09-25T01:43:37.767Z,60.66
2022-09-25T01:46:12.997Z,60.55
2022-09-25T01:48:44.325Z,60.97
2022-09-25T01:51:20.197Z,60.56
2022-09-25T01:53:52.596Z,60.32
2022-09-25T01:56:26.251Z,60.29
2022-09-25T01:59:00.780Z,60.63
2022-09-25T02:01:35.159Z,60.61
2022-09-25T02:04:09.234Z,60.47
2022-09-25T02:06:39.834Z,60.31
2022-09-25T02:09:12.144Z,60.24
2022-09-25T02:11:44.654Z,60.51
2022-09-25T02:14:17.373Z,60.29
2022-09-25T02:16:52.250Z,60.29
2022-09-25T02:19:38.329Z,60.56
2022-09-25T02:22:11.829Z,60.59
2022-09-25T02:24:47.141Z,60.39
2022-09-25T02:27:15.732Z,60.47
2022-09-25T02:29:43.679Z,60.24
2022-09-25T02:32:14.392Z,60.79
2022-09-25T02:34:43.439Z,60.59
2022-09-25T02:37:12.694Z,60.54
2022-09-25T02:39:42.795Z,60.18
2022-09-25T02:42:23.314Z,60.29
2022-09-25T02:45:07.722Z,60.37
2022-09-25T02:47:45.750Z,60.71
2022-09-25T02:50:21.058Z,60.65
2022-09-25T02:52:54.326Z,60.77
2022-09-25T02:55:32.314Z,61.25
2022-09-25T02:58:05.628Z,60.93
2022-09-25T03:00:36.947Z,61.10
2022-09-25T03:03:09.932Z,60.89
2022-09-25T03:05:39.474Z,61.16
2022-09-25T03:08:26.066Z,61.32
2022-09-25T03:10:58.602Z,60.79
2022-09-25T03:13:31.890Z,60.84
2022-09-25T03:16:02.711Z,60.94
2022-09-25T03:18:32.312Z,60.98
2022-09-25T03:21:00.772Z,60.97
2022-09-25T03:23:28.689Z,60.71
2022-09-25T03:25:57.117Z,60.71
2022-09-25T03:28:27.234Z,61.11
2022-09-25T03:31:00.696Z,61.14
2022-09-25T03:33:29.394Z,60.90
2022-09-25T03:36:08.152Z,61.49
2022-09-25T03:38:36.316Z,61.86
2022-09-25T03:41:06.805Z,61.40
2022-09-25T03:43:36.670Z,61.47
2022-09-25T03:46:05.022Z,61.39
2022-09-25T03:48:33.594Z,61.57
2022-09-25T03:51:01.794Z,61.16
2022-09-25T03:53:33.450Z,61.43
2022-09-25T03:56:02.268Z,61.08
2022-09-25T03:58:30.546Z,61.50
2022-09-25T04:00:58.844Z,61.17
2022-09-25T04:03:28.545Z,61.26
2022-09-25T04:05:57.045Z,61.08
2022-09-25T04:08:26.904Z,61.04
2022-09-25T04:10:59.336Z,60.93
2022-09-25T04:13:30.048Z,60.88
2022-09-25T04:15:58.457Z,60.81
2022-09-25T04:18:27.378Z,60.88
2022-09-25T04:20:55.207Z,60.89
2022-09-25T04:23:23.039Z,60.96
2022-09-25T04:25:51.021Z,61.00
2022-09-25T04:28:22.279Z,60.75
2022-09-25T04:30:50.646Z,61.02
2022-09-25T04:33:36.614Z,61.19
2022-09-25T04:36:05.594Z,60.52
2022-09-25T04:38:33.702Z,60.56
2022-09-25T04:41:02.840Z,60.75
2022-09-25T04:43:32.526Z,60.62
2022-09-25T04:46:03.082Z,60.77
2022-09-25T04:48:31.544Z,60.52
2022-09-25T04:50:59.489Z,60.51
2022-09-25T04:53:28.348Z,60.35
2022-09-25T04:56:01.511Z,60.60
2022-09-25T04:58:29.672Z,60.61
2022-09-25T05:01:02.722Z,60.97
2022-09-25T05:03:31.048Z,60.85
2022-09-25T05:05:59.823Z,61.09
2022-09-25T05:08:28.316Z,61.14
2022-09-25T05:10:56.495Z,60.83
2022-09-25T05:13:24.601Z,61.10
2022-09-25T05:15:52.591Z,60.83
2022-09-25T05:18:23.531Z,60.44
2022-09-25T05:20:53.407Z,60.69
2022-09-25T05:23:22.032Z,60.49
2022-09-25T05:25:53.147Z,60.78
2022-09-25T05:28:21.126Z,60.59
2022-09-25T05:30:49.137Z,60.84
2022-09-25T05:33:19.125Z,60.93
2022-09-25T05:35:49.451Z,60.85
2022-09-25T05:38:17.526Z,61.14
2022-09-25T05:40:45.468Z,61.04
2022-09-25T05:43:13.527Z,61.05
2022-09-25T05:45:42.449Z,60.80
2022-09-25T05:48:10.432Z,60.86
2022-09-25T05:50:38.581Z,60.85
2022-09-25T05:53:07.787Z,61.26
2022-09-25T05:55:36.106Z,60.89
2022-09-25T05:58:05.550Z,61.38
2022-09-25T06:00:33.993Z,61.45
2022-09-25T06:03:02.421Z,61.50
2022-09-25T06:05:30.430Z,61.11
2022-09-25T06:07:58.378Z,61.26
2022-09-25T06:10:27.611Z,61.25
2022-09-25T06:12:58.860Z,61.06
2022-09-25T06:15:27.925Z,61.19
2022-09-25T06:17:56.292Z,61.50
2022-09-25T06:20:24.908Z,61.29
2022-09-25T06:22:53.766Z,61.41
2022-09-25T06:25:22.010Z,61.72
2022-09-25T06:27:53.432Z,62.07
2022-09-25T06:30:22.025Z,61.64
2022-09-25T06:32:51.065Z,61.85
2022-09-25T06:35:19.271Z,61.85
2022-09-25T06:37:47.093Z,62.13
2022-09-25T06:40:15.211Z,62.46
2022-09-25T06:42:43.015Z,62.49
2022-09-25T06:45:12.894Z,62.46
2022-09-25T06:47:40.799Z,62.55
2022-09-25T06:50:09.416Z,62.84
2022-09-25T06:52:43.244Z,63.11
2022-09-25T06:55:11.558Z,62.82
2022-09-25T06:57:39.615Z,62.78
2022-09-25T07:00:08.945Z,62.80
2022-09-25T07:02:55.671Z,63.17
2022-09-25T07:05:23.703Z,63.08
2022-09-25T07:07:51.557Z,62.77
2022-09-25T07:10:19.551Z,62.68
2022-09-25T07:12:47.963Z,62.81
2022-09-25T07:15:16.578Z,63.15
2022-09-25T07:17:46.312Z,62.85
2022-09-25T07:20:15.206Z,62.98
2022-09-25T07:22:43.676Z,62.89
2022-09-25T07:25:12.498Z,61.84
2022-09-25T07:27:40.630Z,62.44
2022-09-25T07:30:10.414Z,62.42
2022-09-25T07:32:38.356Z,62.61
2022-09-25T07:35:08.571Z,62.46
2022-09-25T07:37:36.808Z,62.75
2022-09-25T07:40:05.049Z,62.62
2022-09-25T07:42:32.955Z,62.51
2022-09-25T07:45:00.776Z,62.76
2022-09-25T07:47:28.732Z,62.89
2022-09-25T07:49:56.612Z,63.13
2022-09-25T07:52:25.909Z,63.10
2022-09-25T07:54:53.882Z,63.07
2022-09-25T07:57:22.186Z,62.92
2022-09-25T07:59:50.153Z,62.25
2022-09-25T08:02:18.306Z,61.29
2022-09-25T08:04:46.224Z,61.24
2022-09-25T08:07:14.113Z,60.47
2022-09-25T08:09:43.338Z,59.97
2022-09-25T08:12:12.893Z,59.63
2022-09-25T08:14:41.800Z,59.53
2022-09-25T08:17:09.730Z,59.35
2022-09-25T08:19:37.668Z,59.13
2022-09-25T08:22:05.618Z,58.83
2022-09-25T08:24:33.626Z,59.39
2022-09-25T08:27:02.956Z,60.37
2022-09-25T08:29:31.043Z,59.97
2022-09-25T08:31:59.067Z,60.97
2022-09-25T08:34:42.886Z,62.23
2022-09-25T08:37:11.228Z,64.11
2022-09-25T08:39:39.133Z,64.37
2022-09-25T08:42:17.759Z,64.90
2022-09-25T08:45:16.647Z,64.38
2022-09-25T08:47:56.539Z,65.00
2022-09-25T08:50:26.253Z,64.91
2022-09-25T08:53:03.258Z,64.78
2022-09-25T08:55:48.536Z,65.27
2022-09-25T08:58:24.628Z,65.30
2022-09-25T09:00:55.306Z,64.94
2022-09-25T09:03:25.770Z,65.61
2022-09-25T09:06:00.174Z,65.55
2022-09-25T09:08:30.727Z,66.00
2022-09-25T09:11:02.773Z,66.11
2022-09-25T09:13:37.078Z,66.13
2022-09-25T09:16:10.288Z,66.34
2022-09-25T09:18:40.162Z,66.47
2022-09-25T09:21:15.290Z,66.71
2022-09-25T09:23:52.465Z,66.62
2022-09-25T09:26:25.284Z,66.69
2022-09-25T09:29:15.839Z,66.55
2022-09-25T09:31:57.418Z,67.00
2022-09-25T09:35:07.107Z,67.45
2022-09-25T09:37:49.926Z,67.36
2022-09-25T09:40:35.556Z,67.47
2022-09-25T09:43:13.584Z,67.69
2022-09-25T09:45:48.654Z,68.10
2022-09-25T09:48:25.728Z,67.87
2022-09-25T09:50:57.829Z,68.00
2022-09-25T09:53:34.071Z,67.95
2022-09-25T09:56:09.238Z,68.06
2022-09-25T09:58:48.339Z,68.35
2022-09-25T10:01:40.330Z,68.27
2022-09-25T10:04:12.651Z,68.07
2022-09-25T10:06:46.914Z,68.29
2022-09-25T10:09:16.805Z,68.11
2022-09-25T10:11:46.677Z,68.75
2022-09-25T10:14:21.050Z,68.97
2022-09-25T10:16:52.192Z,68.49
2022-09-25T10:19:23.427Z,68.49
2022-09-25T10:21:54.807Z,68.00
2022-09-25T10:24:52.019Z,67.65
2022-09-25T10:27:28.809Z,67.07
2022-09-25T10:30:15.102Z,66.72
2022-09-25T10:32:47.713Z,66.23
2022-09-25T10:35:17.814Z,65.33
2022-09-25T10:37:48.680Z,65.40
2022-09-25T10:40:27.007Z,63.99
2022-09-25T10:43:24.014Z,62.09
2022-09-25T10:46:06.674Z,60.43
2022-09-25T10:48:55.549Z,59.64
2022-09-25T10:51:23.874Z,58.90
2022-09-25T10:53:53.838Z,57.88
2022-09-25T10:56:27.531Z,57.20
2022-09-25T10:58:58.891Z,57.61
2022-09-25T11:01:35.354Z,54.96
2022-09-25T11:04:14.065Z,54.10
2022-09-25T11:06:46.657Z,53.26
2022-09-25T11:09:17.348Z,53.12
2022-09-25T11:11:47.051Z,52.67
2022-09-25T11:14:22.977Z,53.23
2022-09-25T11:16:54.127Z,54.50
2022-09-25T11:19:29.616Z,55.57
2022-09-25T11:22:07.861Z,56.36
2022-09-25T11:24:47.154Z,54.19
2022-09-25T11:27:19.698Z,54.94
2022-09-25T11:29:58.448Z,54.12
2022-09-25T11:32:35.029Z,54.30
2022-09-25T11:35:29.802Z,52.79
2022-09-25T11:38:09.625Z,51.19
2022-09-25T11:41:07.376Z,50.69
2022-09-25T11:43:46.993Z,50.39
2022-09-25T11:46:23.481Z,51.71
2022-09-25T11:49:01.889Z,51.60
2022-09-25T11:52:02.226Z,52.65
2022-09-25T11:54:39.444Z,52.82
2022-09-25T11:57:11.685Z,53.57
2022-09-25T12:00:00.359Z,55.01
2022-09-25T12:02:40.895Z,54.00
2022-09-25T12:05:25.147Z,53.49
2022-09-25T12:08:15.504Z,54.09
2022-09-25T12:10:55.927Z,55.04
2022-09-25T12:13:32.181Z,56.06
2022-09-25T12:16:12.759Z,56.47
2022-09-25T12:18:56.741Z,57.55
2022-09-25T12:21:34.064Z,58.32
2022-09-25T12:24:12.332Z,58.06
2022-09-25T12:26:48.618Z,56.92
2022-09-25T12:29:29.133Z,57.30
2022-09-25T12:32:05.160Z,56.55
2022-09-25T12:34:52.548Z,55.68
2022-09-25T12:37:38.568Z,56.31
2022-09-25T12:40:20.667Z,56.62
2022-09-25T12:42:55.680Z,56.49
2022-09-25T12:45:31.154Z,55.93
2022-09-25T12:48:12.216Z,56.09
2022-09-25T12:50:48.912Z,55.46
2022-09-25T12:53:26.812Z,54.81
2022-09-25T12:56:00.961Z,53.62
2022-09-25T12:58:48.067Z,54.10
2022-09-25T13:01:22.846Z,54.34
2022-09-25T13:03:59.145Z,53.57
2022-09-25T13:06:37.890Z,51.68
2022-09-25T13:09:18.186Z,51.15
2022-09-25T13:11:52.589Z,49.73
2022-09-25T13:14:31.484Z,47.69
2022-09-25T13:17:01.199Z,48.99
2022-09-25T13:19:32.985Z,46.17
2022-09-25T13:22:04.288Z,46.65
2022-09-25T13:24:40.324Z,46.02
2022-09-25T13:27:16.504Z,45.34
2022-09-25T13:29:45.025Z,44.33
2022-09-25T13:32:18.960Z,44.33
2022-09-25T13:34:47.791Z,44.39
2022-09-25T13:37:16.845Z,44.29
2022-09-25T13:40:06.900Z,44.29
2022-09-25T13:42:39.704Z,44.77
2022-09-25T13:45:36.236Z,45.04
2022-09-25T13:48:10.773Z,45.24
2022-09-25T13:50:40.958Z,45.56
2022-09-25T13:53:20.539Z,45.19
2022-09-25T13:56:30.977Z,47.31
2022-09-25T13:59:20.031Z,45.54
2022-09-25T14:01:51.122Z,43.58
2022-09-25T14:04:32.450Z,43.77
2022-09-25T14:07:14.453Z,44.19
2022-09-25T14:09:48.668Z,43.55
2022-09-25T14:12:30.010Z,43.21
2022-09-25T14:15:05.851Z,44.53
2022-09-25T14:17:33.993Z,44.54
2022-09-25T14:20:05.705Z,43.29
2022-09-25T14:22:44.513Z,42.65
2022-09-25T14:25:28.178Z,44.09
2022-09-25T14:27:56.263Z,43.19
2022-09-25T14:30:29.244Z,43.42
2022-09-25T14:33:19.473Z,43.26
2022-09-25T14:35:54.990Z,44.39
2022-09-25T14:38:45.247Z,43.98
2022-09-25T14:41:31.102Z,44.23
2022-09-25T14:44:17.776Z,43.99
2022-09-25T14:46:51.199Z,45.03
2022-09-25T14:49:25.445Z,44.72
2022-09-25T14:51:56.353Z,44.80
2022-09-25T14:54:29.991Z,44.81
2022-09-25T14:56:59.477Z,44.12
2022-09-25T14:59:32.997Z,44.98
2022-09-25T15:02:03.090Z,43.88
2022-09-25T15:04:33.370Z,44.77
2022-09-25T15:07:06.013Z,44.13
2022-09-25T15:09:38.647Z,43.98
2022-09-25T15:12:19.162Z,43.47
2022-09-25T15:15:07.570Z,43.15
2022-09-25T15:17:45.100Z,42.34
2022-09-25T15:20:16.507Z,41.62
2022-09-25T15:22:48.355Z,41.31
2022-09-25T15:25:25.612Z,40.78
2022-09-25T15:27:53.870Z,41.58
2022-09-25T15:30:22.779Z,40.53
2022-09-25T15:32:59.778Z,40.50
2022-09-25T15:35:29.038Z,41.86
2022-09-25T15:38:07.081Z,41.26
2022-09-25T15:40:35.021Z,40.73
2022-09-25T15:43:02.981Z,39.93
2022-09-25T15:45:46.835Z,40.02
2022-09-25T15:48:22.824Z,40.26
2022-09-25T15:50:51.817Z,41.46
2022-09-25T15:53:24.870Z,42.28
2022-09-25T15:56:08.188Z,42.20
2022-09-25T15:58:45.489Z,42.64
2022-09-25T16:01:33.544Z,42.64
2022-09-25T16:04:24.053Z,43.52
2022-09-25T16:06:52.016Z,42.61
2022-09-25T16:09:31.780Z,43.93
2022-09-25T16:12:28.871Z,43.47
2022-09-25T16:14:58.038Z,43.93
2022-09-25T16:17:33.172Z,44.36
2022-09-25T16:20:05.880Z,44.49
2022-09-25T16:22:40.694Z,44.93
2022-09-25T16:25:24.725Z,45.02
2022-09-25T16:27:54.077Z,45.34
2022-09-25T16:30:24.340Z,45.34
2022-09-25T16:32:55.151Z,46.23
2022-09-25T16:36:04.470Z,45.91
2022-09-25T16:38:29.500Z,46.35
2022-09-25T16:41:05.671Z,46.36
2022-09-25T16:43:36.141Z,46.49
2022-09-25T16:46:13.484Z,46.75
2022-09-25T16:48:42.548Z,47.26
2022-09-25T16:51:15.025Z,46.66
2022-09-25T16:53:42.905Z,46.71
2022-09-25T16:56:10.959Z,47.19
2022-09-25T16:58:38.939Z,47.29
2022-09-25T17:01:06.840Z,47.24
2022-09-25T17:03:49.766Z,48.14
2022-09-25T17:06:19.864Z,48.06
2022-09-25T17:08:48.087Z,48.41
2022-09-25T17:11:17.706Z,48.82
2022-09-25T17:13:47.108Z,48.53
2022-09-25T17:16:15.254Z,49.12
2022-09-25T17:18:43.280Z,48.92
2022-09-25T17:21:14.486Z,49.34
2022-09-25T17:23:44.784Z,48.72
2022-09-25T17:26:17.916Z,49.00
2022-09-25T17:28:45.871Z,48.90
2022-09-25T17:31:15.604Z,49.44
2022-09-25T17:33:43.493Z,50.04
2022-09-25T17:36:13.472Z,50.10
2022-09-25T17:38:43.031Z,49.86
2022-09-25T17:41:18.194Z,49.72
2022-09-25T17:43:46.141Z,49.72
2022-09-25T17:46:16.170Z,49.89
2022-09-25T17:48:44.124Z,49.96
2022-09-25T17:51:15.996Z,49.96
2022-09-25T17:53:46.090Z,49.38
2022-09-25T17:56:14.343Z,49.49
2022-09-25T17:58:44.274Z,49.47
2022-09-25T18:01:15.469Z,49.48
2022-09-25T18:03:43.575Z,49.65
2022-09-25T18:06:11.397Z,49.54
2022-09-25T18:08:39.216Z,49.91
2022-09-25T18:11:12.183Z,50.81
2022-09-25T18:13:41.779Z,51.46
2022-09-25T18:16:16.502Z,51.52
2022-09-25T18:19:02.339Z,51.36
2022-09-25T18:21:48.468Z,51.84
2022-09-25T18:24:16.620Z,52.01
2022-09-25T18:26:46.741Z,52.08
2022-09-25T18:29:16.808Z,52.37
2022-09-25T18:31:45.222Z,53.35
2022-09-25T18:34:13.471Z,52.66
2022-09-25T18:36:41.655Z,52.92
2022-09-25T18:39:10.074Z,52.41
2022-09-25T18:41:38.357Z,52.43
2022-09-25T18:44:08.046Z,52.75
2022-09-25T18:46:37.418Z,52.88
2022-09-25T18:49:05.973Z,53.25
2022-09-25T18:51:34.502Z,53.06
2022-09-25T18:54:03.887Z,53.35
2022-09-25T18:56:34.576Z,53.45
2022-09-25T18:59:22.436Z,53.42
2022-09-25T19:05:54.165Z,54.04
2022-09-25T19:08:25.098Z,53.75
2022-09-25T19:10:58.757Z,53.60
2022-09-25T19:13:28.002Z,53.69
2022-09-25T19:15:59.001Z,53.84
2022-09-25T19:18:28.690Z,53.72
2022-09-25T19:20:58.491Z,53.79
2022-09-25T19:23:31.803Z,54.02
2022-09-25T19:26:03.634Z,54.17
2022-09-25T19:28:37.647Z,54.27
2022-09-25T19:31:08.691Z,54.04
2022-09-25T19:33:38.522Z,54.75
2022-09-25T19:36:08.725Z,54.69
2022-09-25T19:38:40.427Z,54.95
2022-09-25T19:41:15.196Z,54.82
2022-09-25T19:43:45.032Z,55.28
2022-09-25T19:46:14.950Z,55.07
2022-09-25T19:48:43.711Z,55.20
2022-09-25T19:51:12.845Z,55.41
2022-09-25T19:53:43.747Z,55.48
2022-09-25T19:56:12.447Z,55.95
2022-09-25T19:58:42.930Z,55.74
2022-09-25T20:01:13.265Z,56.08
2022-09-25T20:03:42.228Z,56.39
2022-09-25T20:06:13.360Z,56.83
2022-09-25T20:08:45.061Z,56.60
2022-09-25T20:11:16.870Z,56.25
2022-09-25T20:13:47.695Z,56.54
2022-09-25T20:16:18.956Z,57.04
2022-09-25T20:18:49.259Z,56.97
2022-09-25T20:25:28.021Z,56.67
2022-09-25T20:27:58.080Z,57.06
2022-09-25T20:30:30.098Z,57.43
2022-09-25T20:32:59.182Z,56.86
2022-09-25T20:35:27.135Z,56.68
2022-09-25T20:37:55.196Z,56.92
2022-09-25T20:40:25.541Z,57.30
2022-09-25T20:42:53.906Z,57.37
2022-09-25T20:45:21.975Z,57.14
2022-09-25T20:47:51.020Z,57.33
2022-09-25T20:50:19.329Z,57.50
2022-09-25T20:52:48.170Z,57.29
2022-09-25T20:55:19.701Z,57.50
2022-09-25T20:57:49.089Z,57.75
2022-09-25T21:00:19.594Z,57.66
2022-09-25T21:02:48.444Z,57.74
2022-09-25T21:05:17.562Z,57.95
2022-09-25T21:07:45.881Z,57.92
2022-09-25T21:10:16.164Z,58.18
2022-09-25T21:12:47.635Z,58.23
2022-09-25T21:15:19.218Z,57.86
2022-09-25T21:17:47.499Z,57.86
2022-09-25T21:20:16.457Z,57.96
2022-09-25T21:22:48.341Z,58.19
2022-09-25T21:25:17.060Z,58.21
2022-09-25T21:27:45.408Z,58.54
2022-09-25T21:30:14.514Z,58.57
2022-09-25T21:32:45.239Z,58.44
2022-09-25T21:35:13.891Z,58.48
2022-09-25T21:37:42.953Z,58.61
2022-09-25T21:40:11.046Z,58.50
2022-09-25T21:42:42.621Z,58.86
2022-09-25T21:45:12.069Z,58.51
2022-09-25T21:47:40.091Z,58.88
2022-09-25T21:50:10.431Z,59.09
2022-09-25T21:52:42.075Z,59.17
2022-09-25T21:55:11.148Z,58.96
2022-09-25T21:57:39.141Z,59.03
2022-09-25T22:00:08.214Z,59.68
2022-09-25T22:02:36.984Z,59.86
2022-09-25T22:05:05.750Z,59.88
2022-09-25T22:07:35.104Z,60.59
2022-09-25T22:10:03.055Z,60.10
2022-09-25T22:12:32.018Z,59.76
2022-09-25T22:15:00.563Z,60.21
2022-09-25T22:17:28.637Z,60.22
2022-09-25T22:19:56.721Z,60.11
2022-09-25T22:22:24.809Z,60.28
2022-09-25T22:24:54.839Z,59.88
2022-09-25T22:27:23.058Z,60.70
2022-09-25T22:29:50.971Z,60.77
2022-09-25T22:32:19.606Z,60.76
2022-09-25T22:34:47.854Z,60.35
2022-09-25T22:37:18.547Z,60.48
2022-09-25T22:39:47.828Z,60.89
2022-09-25T22:42:17.151Z,61.33
2022-09-25T22:44:46.368Z,61.88
2022-09-25T22:47:15.342Z,61.84
2022-09-25T22:49:43.722Z,62.15
2022-09-25T22:52:13.678Z,63.13
2022-09-25T22:54:42.593Z,62.85
2022-09-25T22:57:10.605Z,63.29
2022-09-25T22:59:39.906Z,63.12
2022-09-25T23:02:07.988Z,62.80
2022-09-25T23:04:36.291Z,61.44
2022-09-25T23:07:04.778Z,61.31
2022-09-25T23:09:33.353Z,60.83
2022-09-25T23:12:01.785Z,60.60
2022-09-25T23:14:32.478Z,60.68
2022-09-25T23:17:02.233Z,60.55
2022-09-25T23:19:30.865Z,60.45
2022-09-25T23:21:59.545Z,60.42
2022-09-25T23:24:29.709Z,60.98
2022-09-25T23:26:58.461Z,60.99
2022-09-25T23:29:26.521Z,61.16
2022-09-25T23:31:54.930Z,61.69
2022-09-25T23:34:24.762Z,61.80
2022-09-25T23:36:52.633Z,61.71
2022-09-25T23:39:21.527Z,61.82
2022-09-25T23:41:50.580Z,62.03
2022-09-25T23:44:18.800Z,62.43
2022-09-25T23:46:46.851Z,62.18
2022-09-25T23:49:18.056Z,62.52
2022-09-25T23:51:48.158Z,62.30
2022-09-25T23:54:18.331Z,63.23
2022-09-25T23:56:47.252Z,63.38
2022-09-25T23:59:16.099Z,64.01
